createdAt,value
2023-02-26T00:01:25.580Z,10.50
2023-02-26T00:03:54.356Z,11.70
2023-02-26T00:08:48.391Z,9.80
2023-02-26T00:11:16.509Z,11.23
2023-02-26T00:13:45.053Z,13.03
2023-02-26T00:16:18.174Z,13.10
2023-02-26T00:18:45.373Z,11.93
2023-02-26T00:21:18.387Z,11.43
2023-02-26T00:23:45.513Z,11.07
2023-02-26T00:26:12.728Z,13.60
2023-02-26T00:28:40.309Z,15.77
2023-02-26T00:31:08.169Z,13.33
2023-02-26T00:33:35.411Z,13.70
2023-02-26T00:36:26.081Z,11.67
2023-02-26T00:39:25.347Z,12.57
2023-02-26T00:41:52.867Z,17.80
2023-02-26T00:44:20.043Z,20.80
2023-02-26T00:46:58.039Z,9.33
2023-02-26T00:49:55.608Z,8.60
2023-02-26T00:52:44.267Z,12.47
2023-02-26T00:55:11.336Z,8.57
2023-02-26T00:57:38.492Z,10.63
2023-02-26T01:00:08.105Z,9.30
2023-02-26T01:02:36.586Z,11.83
2023-02-26T01:05:04.292Z,11.38
2023-02-26T01:07:49.042Z,14.13
2023-02-26T01:10:16.650Z,13.00
2023-02-26T01:12:44.322Z,8.93
2023-02-26T01:15:11.674Z,8.37
2023-02-26T01:17:52.945Z,10.97
2023-02-26T01:20:23.595Z,10.27
2023-02-26T01:23:01.539Z,8.10
2023-02-26T01:26:14.912Z,9.90
2023-02-26T01:28:42.470Z,7.57
2023-02-26T01:31:19.396Z,9.20
2023-02-26T01:33:53.949Z,7.53
2023-02-26T01:36:24.224Z,9.43
2023-02-26T01:39:02.683Z,8.07
2023-02-26T01:42:14.013Z,9.07
2023-02-26T01:45:12.333Z,10.37
2023-02-26T01:47:54.359Z,10.70
2023-02-26T01:50:25.847Z,8.27
2023-02-26T01:53:16.588Z,8.40
2023-02-26T01:55:49.465Z,9.27
2023-02-26T01:58:17.308Z,7.90
2023-02-26T02:00:44.662Z,10.87
2023-02-26T02:03:11.849Z,10.77
2023-02-26T02:05:47.483Z,8.27
2023-02-26T02:08:14.591Z,9.80
2023-02-26T02:10:45.775Z,10.50
2023-02-26T02:13:34.338Z,10.90
2023-02-26T02:21:23.065Z,9.73
2023-02-26T02:24:03.049Z,11.50
2023-02-26T02:26:42.696Z,10.37
2023-02-26T02:29:26.978Z,8.07
2023-02-26T02:32:10.057Z,8.33
2023-02-26T02:34:53.492Z,8.20
2023-02-26T02:37:30.589Z,12.93
2023-02-26T02:40:17.707Z,9.40
2023-02-26T02:42:52.423Z,8.27
2023-02-26T02:45:50.012Z,9.07
2023-02-26T02:48:31.632Z,7.13
2023-02-26T02:51:04.305Z,8.07
2023-02-26T02:53:37.823Z,13.03
2023-02-26T02:56:10.911Z,8.30
2023-02-26T02:58:44.325Z,11.33
2023-02-26T03:01:14.616Z,8.20
2023-02-26T03:03:57.158Z,10.77
2023-02-26T03:06:24.779Z,10.27
2023-02-26T03:08:53.248Z,9.80
2023-02-26T03:11:20.818Z,9.07
2023-02-26T03:13:49.586Z,11.67
2023-02-26T03:16:54.661Z,7.60
2023-02-26T03:19:31.215Z,8.97
2023-02-26T03:22:31.892Z,8.63
2023-02-26T03:25:13.512Z,9.00
2023-02-26T03:27:52.855Z,8.00
2023-02-26T03:30:33.047Z,9.23
2023-02-26T03:33:24.128Z,11.93
2023-02-26T03:35:57.216Z,15.50
2023-02-26T03:38:53.008Z,11.90
2023-02-26T03:41:33.474Z,11.37
2023-02-26T03:44:13.360Z,10.40
2023-02-26T03:46:46.132Z,11.07
2023-02-26T03:49:18.349Z,8.57
2023-02-26T03:51:46.856Z,10.87
2023-02-26T03:54:21.387Z,8.45
2023-02-26T03:56:49.719Z,7.43
2023-02-26T03:59:17.970Z,5.95
2023-02-26T04:02:08.719Z,8.60
2023-02-26T04:04:48.391Z,8.13
2023-02-26T04:07:17.680Z,11.53
2023-02-26T04:09:47.532Z,8.10
2023-02-26T04:12:15.257Z,7.13
2023-02-26T04:14:42.133Z,10.47
2023-02-26T04:17:09.316Z,7.40
2023-02-26T04:19:36.215Z,7.87
2023-02-26T04:22:03.561Z,9.60
2023-02-26T04:24:30.693Z,7.83
2023-02-26T04:26:57.860Z,7.93
2023-02-26T04:29:24.838Z,9.07
2023-02-26T04:31:52.011Z,8.23
2023-02-26T04:34:18.916Z,9.90
2023-02-26T04:36:46.118Z,8.17
2023-02-26T04:39:13.101Z,6.23
2023-02-26T04:41:40.337Z,8.67
2023-02-26T04:44:07.439Z,6.90
2023-02-26T04:46:34.679Z,8.67
2023-02-26T04:49:01.630Z,7.13
2023-02-26T04:51:28.811Z,6.30
2023-02-26T04:53:55.766Z,7.50
2023-02-26T04:56:23.152Z,9.13
2023-02-26T04:58:50.280Z,9.03
2023-02-26T05:01:17.528Z,6.53
2023-02-26T05:03:44.444Z,7.77
2023-02-26T05:06:11.629Z,14.57
2023-02-26T05:08:42.291Z,7.97
2023-02-26T05:11:10.904Z,8.73
2023-02-26T05:13:38.412Z,8.63
2023-02-26T05:16:07.278Z,7.07
2023-02-26T05:18:34.336Z,7.25
2023-02-26T05:21:01.548Z,5.80
2023-02-26T05:23:28.976Z,7.33
2023-02-26T05:25:57.413Z,6.57
2023-02-26T05:28:25.321Z,6.63
2023-02-26T05:30:53.085Z,6.82
2023-02-26T05:33:20.042Z,6.30
2023-02-26T05:35:48.297Z,6.47
2023-02-26T05:38:15.334Z,6.10
2023-02-26T05:40:42.498Z,6.23
2023-02-26T05:43:09.474Z,7.00
2023-02-26T05:45:36.639Z,6.20
2023-02-26T05:48:04.018Z,6.43
2023-02-26T05:50:31.272Z,6.97
2023-02-26T05:52:58.289Z,5.90
2023-02-26T05:55:25.471Z,7.37
2023-02-26T05:57:52.345Z,8.67
2023-02-26T06:00:19.808Z,6.70
2023-02-26T06:02:46.704Z,7.90
2023-02-26T06:05:14.155Z,12.33
2023-02-26T06:07:41.015Z,9.57
2023-02-26T06:10:08.986Z,19.47
2023-02-26T06:12:36.550Z,18.37
2023-02-26T06:15:05.379Z,31.60
2023-02-26T06:17:33.317Z,57.33
2023-02-26T06:20:00.629Z,30.63
2023-02-26T06:22:27.581Z,23.10
2023-02-26T06:24:55.755Z,10.03
2023-02-26T06:27:23.483Z,9.20
2023-02-26T06:29:50.663Z,9.53
2023-02-26T06:32:17.814Z,11.80
2023-02-26T06:34:45.102Z,10.40
2023-02-26T06:37:12.007Z,7.53
2023-02-26T06:39:39.168Z,7.93
2023-02-26T06:42:06.197Z,9.17
2023-02-26T06:44:33.402Z,12.30
2023-02-26T06:47:00.343Z,8.53
2023-02-26T06:49:27.739Z,7.30
2023-02-26T06:51:54.651Z,8.37
2023-02-26T06:54:21.838Z,7.57
2023-02-26T06:56:48.767Z,9.57
2023-02-26T06:59:16.032Z,8.83
2023-02-26T07:01:43.076Z,7.37
2023-02-26T07:04:10.563Z,7.97
2023-02-26T07:06:37.559Z,8.33
2023-02-26T07:09:04.788Z,7.63
2023-02-26T07:11:31.721Z,10.67
2023-02-26T07:13:58.886Z,9.27
2023-02-26T07:16:26.021Z,12.00
2023-02-26T07:18:53.420Z,9.33
2023-02-26T07:21:20.304Z,7.67
2023-02-26T07:23:47.604Z,8.67
2023-02-26T07:26:15.443Z,8.30
2023-02-26T07:28:42.563Z,6.30
2023-02-26T07:31:09.633Z,11.27
2023-02-26T07:33:38.571Z,7.43
2023-02-26T07:36:06.367Z,11.52
2023-02-26T07:38:33.580Z,9.63
2023-02-26T07:41:00.490Z,12.23
2023-02-26T07:43:27.724Z,11.97
2023-02-26T07:45:54.753Z,11.47
2023-02-26T07:48:21.946Z,7.67
2023-02-26T07:50:52.225Z,8.63
2023-02-26T07:53:19.956Z,10.40
2023-02-26T07:55:47.535Z,8.83
2023-02-26T07:58:14.462Z,8.40
2023-02-26T08:00:41.618Z,9.53
2023-02-26T08:03:08.444Z,10.87
2023-02-26T08:05:36.068Z,9.00
2023-02-26T08:08:03.420Z,12.80
2023-02-26T08:10:31.068Z,33.40
2023-02-26T08:12:57.956Z,22.43
2023-02-26T08:15:25.140Z,48.97
2023-02-26T08:17:53.707Z,48.03
2023-02-26T08:20:21.208Z,22.77
2023-02-26T08:22:48.117Z,17.93
2023-02-26T08:25:15.906Z,11.70
2023-02-26T08:27:43.076Z,30.23
2023-02-26T08:30:11.133Z,15.67
2023-02-26T08:32:39.968Z,11.53
2023-02-26T08:35:07.460Z,12.70
2023-02-26T08:37:34.321Z,12.80
2023-02-26T08:40:01.610Z,12.37
2023-02-26T08:42:28.505Z,16.10
2023-02-26T08:44:55.736Z,24.23
2023-02-26T08:47:28.783Z,16.53
2023-02-26T08:49:56.843Z,10.97
2023-02-26T08:52:23.755Z,12.23
2023-02-26T08:54:51.317Z,12.23
2023-02-26T08:57:18.285Z,13.73
2023-02-26T08:59:45.751Z,9.07
2023-02-26T09:02:14.240Z,10.83
2023-02-26T09:04:41.419Z,12.48
2023-02-26T09:07:08.294Z,9.70
2023-02-26T09:09:35.524Z,10.87
2023-02-26T09:12:02.540Z,13.13
2023-02-26T09:14:29.817Z,17.90
2023-02-26T09:16:56.691Z,10.37
2023-02-26T09:19:23.856Z,8.00
2023-02-26T09:21:50.793Z,10.67
2023-02-26T09:24:18.041Z,11.23
2023-02-26T09:26:44.943Z,11.47
2023-02-26T09:29:13.398Z,12.27
2023-02-26T09:31:40.759Z,10.52
2023-02-26T09:34:09.886Z,9.53
2023-02-26T09:36:37.669Z,14.27
2023-02-26T09:39:05.022Z,16.30
2023-02-26T09:41:36.576Z,19.63
2023-02-26T09:44:06.342Z,20.10
2023-02-26T09:46:48.353Z,52.73
2023-02-26T09:49:41.395Z,46.07
2023-02-26T09:52:26.414Z,23.50
2023-02-26T09:54:58.720Z,67.77
2023-02-26T09:57:34.953Z,41.57
2023-02-26T10:00:08.094Z,22.77
2023-02-26T10:02:47.992Z,13.53
2023-02-26T10:05:26.346Z,19.33
2023-02-26T10:08:02.286Z,25.27
2023-02-26T10:10:48.720Z,17.90
2023-02-26T10:13:35.417Z,26.43
2023-02-26T10:16:26.338Z,30.05
2023-02-26T10:19:01.134Z,14.87
2023-02-26T10:21:36.837Z,23.47
2023-02-26T10:24:13.889Z,17.60
2023-02-26T10:26:54.401Z,17.40
2023-02-26T10:29:44.597Z,25.60
2023-02-26T10:32:23.424Z,60.50
2023-02-26T10:35:16.149Z,54.05
2023-02-26T10:37:56.271Z,14.40
2023-02-26T10:40:46.825Z,16.93
2023-02-26T10:43:25.537Z,8.43
2023-02-26T10:46:11.372Z,13.55
2023-02-26T10:48:59.811Z,11.10
2023-02-26T10:51:35.382Z,8.77
2023-02-26T10:54:19.566Z,7.47
2023-02-26T10:56:46.668Z,8.43
2023-02-26T10:59:15.222Z,8.20
2023-02-26T11:01:44.431Z,8.50
2023-02-26T11:04:18.247Z,8.53
2023-02-26T11:07:00.515Z,8.13
2023-02-26T11:09:38.393Z,11.33
2023-02-26T11:12:06.676Z,10.93
2023-02-26T11:14:34.732Z,11.88
2023-02-26T11:17:06.836Z,9.57
2023-02-26T11:19:38.315Z,16.90
2023-02-26T11:22:09.860Z,14.97
2023-02-26T11:24:41.551Z,12.47
2023-02-26T11:27:24.863Z,13.67
2023-02-26T11:29:59.853Z,18.40
2023-02-26T11:32:37.134Z,20.23
2023-02-26T11:35:08.898Z,19.10
2023-02-26T11:37:39.473Z,12.37
2023-02-26T11:40:16.142Z,21.73
2023-02-26T11:42:54.059Z,29.00
2023-02-26T11:45:22.224Z,24.17
2023-02-26T11:47:59.472Z,21.93
2023-02-26T11:50:28.496Z,20.43
2023-02-26T11:53:04.147Z,31.50
2023-02-26T11:55:44.632Z,22.27
2023-02-26T11:58:23.517Z,36.90
2023-02-26T12:03:24.592Z,18.17
2023-02-26T12:05:53.384Z,33.20
2023-02-26T12:08:20.278Z,15.43
2023-02-26T12:11:19.744Z,22.80
2023-02-26T12:14:35.058Z,30.33
2023-02-26T12:17:15.084Z,17.07
2023-02-26T12:20:07.901Z,16.20
2023-02-26T12:22:55.308Z,15.57
2023-02-26T12:25:31.468Z,19.33
2023-02-26T12:28:32.936Z,17.77
2023-02-26T12:31:29.155Z,31.63
2023-02-26T12:34:17.165Z,49.80
2023-02-26T12:37:08.724Z,27.07
2023-02-26T12:40:01.793Z,14.37
2023-02-26T12:42:55.141Z,29.83
2023-02-26T12:45:37.537Z,19.97
2023-02-26T12:48:41.920Z,26.07
2023-02-26T12:51:30.372Z,12.73
2023-02-26T12:54:26.376Z,13.82
2023-02-26T12:57:12.185Z,13.67
2023-02-26T12:59:48.057Z,15.53
2023-02-26T13:02:36.590Z,16.83
2023-02-26T13:05:25.181Z,13.98
2023-02-26T13:08:02.785Z,11.27
2023-02-26T13:10:52.009Z,12.37
2023-02-26T13:13:28.001Z,10.40
2023-02-26T13:16:03.991Z,14.37
2023-02-26T13:18:52.704Z,12.73
2023-02-26T13:21:31.193Z,15.05
2023-02-26T13:24:06.249Z,15.20
2023-02-26T13:26:35.803Z,12.23
2023-02-26T13:29:04.781Z,13.53
2023-02-26T13:31:49.612Z,11.48
2023-02-26T13:34:35.177Z,20.87
2023-02-26T13:37:04.267Z,20.43
2023-02-26T13:39:31.362Z,15.70
2023-02-26T13:42:20.114Z,15.07
2023-02-26T13:47:42.853Z,17.90
2023-02-26T13:50:12.948Z,20.30
2023-02-26T13:52:54.762Z,20.90
2023-02-26T13:55:42.995Z,67.47
2023-02-26T13:58:23.044Z,20.43
2023-02-26T14:01:08.757Z,16.87
2023-02-26T14:04:06.334Z,12.17
2023-02-26T14:06:39.121Z,15.50
2023-02-26T14:09:29.066Z,35.77
2023-02-26T14:12:01.196Z,21.90
2023-02-26T14:14:41.434Z,18.33
2023-02-26T14:17:08.642Z,17.97
2023-02-26T14:19:53.489Z,22.40
2023-02-26T14:22:35.022Z,15.40
2023-02-26T14:25:20.063Z,82.70
2023-02-26T14:27:48.992Z,58.57
2023-02-26T14:30:34.048Z,35.20
2023-02-26T14:33:01.528Z,30.33
2023-02-26T14:35:32.203Z,34.57
2023-02-26T14:38:27.972Z,18.77
2023-02-26T14:41:09.000Z,22.43
2023-02-26T14:43:45.323Z,71.37
2023-02-26T14:46:13.049Z,30.73
2023-02-26T14:48:40.257Z,19.30
2023-02-26T14:51:19.295Z,15.67
2023-02-26T14:53:58.899Z,11.07
2023-02-26T14:56:54.274Z,22.57
2023-02-26T14:59:41.798Z,19.30
2023-02-26T15:02:18.641Z,13.33
2023-02-26T15:05:01.651Z,14.00
2023-02-26T15:07:48.019Z,29.03
2023-02-26T15:10:33.559Z,27.07
2023-02-26T15:13:25.103Z,22.40
2023-02-26T15:16:18.722Z,22.13
2023-02-26T15:18:53.226Z,24.47
2023-02-26T15:21:32.567Z,19.53
2023-02-26T15:26:34.148Z,18.63
2023-02-26T15:29:05.698Z,13.60
2023-02-26T15:31:41.650Z,17.73
2023-02-26T15:34:14.221Z,18.43
2023-02-26T15:36:53.255Z,21.57
2023-02-26T15:41:52.693Z,8.43
2023-02-26T15:44:27.243Z,10.93
2023-02-26T15:47:01.532Z,11.23
2023-02-26T15:49:38.943Z,12.47
2023-02-26T15:52:08.783Z,25.77
2023-02-26T15:54:45.273Z,30.23
2023-02-26T15:57:14.822Z,40.40
2023-02-26T15:59:48.368Z,16.13
2023-02-26T16:02:19.994Z,37.17
2023-02-26T16:04:47.202Z,49.60
2023-02-26T16:07:14.764Z,52.17
2023-02-26T16:09:50.066Z,45.90
2023-02-26T16:12:34.516Z,38.80
2023-02-26T16:15:07.037Z,67.97
2023-02-26T16:17:39.508Z,80.37
2023-02-26T16:20:14.636Z,53.77
2023-02-26T16:23:09.279Z,39.20
2023-02-26T16:25:50.710Z,34.57
2023-02-26T16:28:29.974Z,45.53
2023-02-26T16:30:59.872Z,39.70
2023-02-26T16:33:31.950Z,43.50
2023-02-26T16:36:18.296Z,60.53
2023-02-26T16:38:49.950Z,61.73
2023-02-26T16:41:22.895Z,53.17
2023-02-26T16:43:57.852Z,39.67
2023-02-26T16:46:46.520Z,53.57
2023-02-26T16:51:53.760Z,37.60
2023-02-26T16:54:26.458Z,39.80
2023-02-26T16:56:59.992Z,55.53
2023-02-26T16:59:31.729Z,45.23
2023-02-26T17:02:03.369Z,40.33
2023-02-26T17:04:35.818Z,42.00
2023-02-26T17:07:14.723Z,49.57
2023-02-26T17:09:49.374Z,47.63
2023-02-26T17:12:28.639Z,58.37
2023-02-26T17:14:58.168Z,70.47
2023-02-26T17:17:25.691Z,64.97
2023-02-26T17:19:53.200Z,51.50
2023-02-26T17:22:26.345Z,38.20
2023-02-26T17:24:53.843Z,44.33
2023-02-26T17:27:29.844Z,48.37
2023-02-26T17:29:58.120Z,59.50
2023-02-26T17:32:31.420Z,51.83
2023-02-26T17:34:59.381Z,65.03
2023-02-26T17:37:33.716Z,66.90
2023-02-26T17:40:00.955Z,58.23
2023-02-26T17:42:27.949Z,44.73
2023-02-26T17:44:56.864Z,44.27
2023-02-26T17:47:26.275Z,40.35
2023-02-26T17:49:54.391Z,33.97
2023-02-26T17:52:21.378Z,31.00
2023-02-26T17:54:48.783Z,31.47
2023-02-26T17:57:22.221Z,27.07
2023-02-26T18:12:19.471Z,37.83
2023-02-26T18:14:46.924Z,33.03
2023-02-26T18:17:26.065Z,35.60
2023-02-26T18:19:53.639Z,45.93
2023-02-26T18:22:25.303Z,48.53
2023-02-26T18:24:53.682Z,67.00
2023-02-26T18:27:23.708Z,74.20
2023-02-26T18:29:51.454Z,84.90
2023-02-26T18:32:21.761Z,81.37
2023-02-26T18:34:50.934Z,46.90
2023-02-26T18:37:20.943Z,37.30
2023-02-26T18:39:48.437Z,28.10
2023-02-26T18:42:24.243Z,34.03
2023-02-26T18:44:53.264Z,36.10
2023-02-26T18:47:22.477Z,33.63
2023-02-26T18:49:51.101Z,51.13
2023-02-26T18:52:18.417Z,27.70
2023-02-26T18:54:45.736Z,32.70
2023-02-26T18:57:12.655Z,33.57
2023-02-26T18:59:40.318Z,25.10
2023-02-26T19:02:07.899Z,31.27
2023-02-26T19:04:35.252Z,33.27
2023-02-26T19:07:03.798Z,23.57
2023-02-26T19:09:31.024Z,19.33
2023-02-26T19:11:58.529Z,22.57
2023-02-26T19:14:25.791Z,20.37
2023-02-26T19:16:53.332Z,23.07
2023-02-26T19:19:21.251Z,21.47
2023-02-26T19:21:48.927Z,23.47
2023-02-26T19:24:16.564Z,21.07
2023-02-26T19:26:44.385Z,20.47
2023-02-26T19:29:15.796Z,16.80
2023-02-26T19:31:43.767Z,22.37
2023-02-26T19:34:12.039Z,18.00
2023-02-26T19:36:40.687Z,20.17
2023-02-26T19:39:08.342Z,19.67
2023-02-26T19:41:35.270Z,15.90
2023-02-26T19:44:02.438Z,19.73
2023-02-26T19:46:29.393Z,16.70
2023-02-26T19:48:56.600Z,17.60
2023-02-26T19:51:23.523Z,15.80
2023-02-26T19:53:50.761Z,19.13
2023-02-26T19:56:17.661Z,19.83
2023-02-26T19:58:44.887Z,21.37
2023-02-26T20:01:11.849Z,23.93
2023-02-26T20:03:39.021Z,20.20
2023-02-26T20:06:08.408Z,16.83
2023-02-26T20:08:35.648Z,19.63
2023-02-26T20:11:02.717Z,16.07
2023-02-26T20:13:30.973Z,15.70
2023-02-26T20:15:58.829Z,18.20
2023-02-26T20:18:28.710Z,23.63
2023-02-26T20:20:55.982Z,19.63
2023-02-26T20:23:23.305Z,19.87
2023-02-26T20:25:50.555Z,21.37
2023-02-26T20:28:18.554Z,18.60
2023-02-26T20:30:46.389Z,25.40
2023-02-26T20:33:14.465Z,33.03
2023-02-26T20:35:46.047Z,30.43
2023-02-26T20:38:14.768Z,25.67
2023-02-26T20:40:41.998Z,28.13
2023-02-26T20:43:09.636Z,35.10
2023-02-26T20:45:37.990Z,30.27
2023-02-26T20:48:06.817Z,22.08
2023-02-26T20:50:35.045Z,31.08
2023-02-26T20:53:03.708Z,34.88
2023-02-26T20:55:30.620Z,23.23
2023-02-26T20:57:57.759Z,22.93
2023-02-26T21:00:25.126Z,16.93
2023-02-26T21:02:52.521Z,16.23
2023-02-26T21:05:19.652Z,20.47
2023-02-26T21:07:46.949Z,22.23
2023-02-26T21:10:16.079Z,30.27
2023-02-26T21:12:43.395Z,34.70
2023-02-26T21:15:12.370Z,33.70
2023-02-26T21:17:41.457Z,30.67
2023-02-26T21:20:12.031Z,25.17
2023-02-26T21:22:39.699Z,23.97
2023-02-26T21:25:07.681Z,16.83
2023-02-26T21:27:37.042Z,24.80
2023-02-26T21:30:18.434Z,22.07
2023-02-26T21:32:48.218Z,17.93
2023-02-26T21:35:17.048Z,25.57
2023-02-26T21:37:48.885Z,20.67
2023-02-26T21:40:16.456Z,20.23
2023-02-26T21:42:44.136Z,29.83
2023-02-26T21:45:11.501Z,17.33
2023-02-26T21:47:39.060Z,15.80
2023-02-26T21:50:07.640Z,20.17
2023-02-26T21:52:35.028Z,18.52
2023-02-26T21:55:02.313Z,14.53
2023-02-26T21:57:30.241Z,14.47
2023-02-26T21:59:57.287Z,16.37
2023-02-26T22:02:24.808Z,16.23
2023-02-26T22:04:51.824Z,20.67
2023-02-26T22:07:19.926Z,15.27
2023-02-26T22:09:48.992Z,15.37
2023-02-26T22:12:17.284Z,13.03
2023-02-26T22:14:44.381Z,13.10
2023-02-26T22:17:11.974Z,14.77
2023-02-26T22:19:38.816Z,17.17
2023-02-26T22:22:06.559Z,19.97
2023-02-26T22:24:33.494Z,14.77
2023-02-26T22:27:00.700Z,18.90
2023-02-26T22:29:27.613Z,16.20
2023-02-26T22:31:56.720Z,14.30
2023-02-26T22:34:23.749Z,13.00
2023-02-26T22:36:52.255Z,18.23
2023-02-26T22:39:20.475Z,16.85
2023-02-26T22:41:47.967Z,17.70
2023-02-26T22:44:15.273Z,12.10
2023-02-26T22:46:42.706Z,15.80
2023-02-26T22:49:09.616Z,16.10
2023-02-26T22:51:36.880Z,16.17
2023-02-26T22:54:04.020Z,14.30
2023-02-26T22:56:31.781Z,14.37
2023-02-26T22:58:58.788Z,12.20
2023-02-26T23:01:26.434Z,12.07
2023-02-26T23:03:53.373Z,18.13
2023-02-26T23:06:20.622Z,10.27
2023-02-26T23:08:47.685Z,11.77
2023-02-26T23:11:14.896Z,11.17
2023-02-26T23:13:41.767Z,9.13
2023-02-26T23:16:10.922Z,10.20
2023-02-26T23:18:39.480Z,10.25
2023-02-26T23:21:08.142Z,9.77
2023-02-26T23:23:35.204Z,12.07
2023-02-26T23:26:02.718Z,11.50
2023-02-26T23:28:29.955Z,11.93
2023-02-26T23:30:57.180Z,11.63
2023-02-26T23:33:24.150Z,10.37
2023-02-26T23:35:51.455Z,11.73
2023-02-26T23:38:18.354Z,10.73
2023-02-26T23:40:45.571Z,11.00
2023-02-26T23:43:12.449Z,8.53
2023-02-26T23:45:39.750Z,8.30
2023-02-26T23:48:07.045Z,11.00
2023-02-26T23:50:34.330Z,12.80
2023-02-26T23:53:01.460Z,11.70
2023-02-26T23:55:28.707Z,11.53
2023-02-26T23:57:55.588Z,10.40
